createdAt,value
2019-02-09T08:29:14.821Z,99.99
2019-02-09T08:30:12.734Z,99.99
2019-02-09T08:32:12.485Z,99.99
2019-02-09T08:33:06.984Z,99.99
2019-02-09T08:35:04.291Z,99.99
2019-02-09T08:36:01.132Z,99.99
2019-02-09T08:37:55.710Z,99.99
2019-02-09T08:38:55.719Z,99.99
2019-02-09T08:40:49.950Z,99.99
2019-02-09T08:41:49.862Z,99.99
2019-02-09T08:43:45.241Z,99.99
2019-02-09T08:44:44.002Z,99.99
2019-02-09T08:45:45.330Z,99.99
2019-02-09T08:46:45.998Z,99.99
2019-02-09T08:47:44.067Z,99.99
2019-02-09T08:48:45.542Z,99.99
2019-02-09T08:49:45.496Z,99.99
2019-02-09T08:50:46.189Z,99.99
2019-02-09T08:51:44.012Z,99.99
2019-02-09T08:52:46.808Z,99.99
2019-02-09T08:53:43.963Z,99.99
2019-02-09T08:54:43.925Z,99.99
2019-02-09T08:55:46.459Z,99.99
2019-02-09T08:56:43.974Z,99.99
2019-02-09T08:57:48.297Z,99.99
2019-02-09T08:58:46.666Z,99.99
2019-02-09T08:59:45.420Z,99.99
2019-02-09T09:00:45.675Z,99.99
2019-02-09T09:01:43.957Z,99.99
2019-02-09T09:02:47.387Z,99.99
2019-02-09T09:03:46.453Z,99.99
2019-02-09T09:04:45.922Z,99.99
2019-02-09T09:05:46.125Z,99.99
2019-02-09T09:06:43.856Z,99.99
2019-02-09T09:07:45.761Z,99.99
2019-02-09T09:08:45.699Z,99.99
2019-02-09T09:09:43.945Z,99.99
2019-02-09T09:10:45.464Z,99.99
2019-02-09T09:11:45.883Z,99.99
2019-02-09T09:12:48.075Z,99.99
2019-02-09T09:13:43.838Z,99.99
2019-02-09T09:14:45.679Z,99.99
2019-02-09T09:15:45.733Z,99.99
2019-02-09T09:16:46.263Z,99.99
2019-02-09T09:17:45.196Z,99.99
2019-02-09T09:18:43.925Z,99.99
2019-02-09T09:19:45.873Z,99.99
2019-02-09T09:20:45.281Z,99.99
2019-02-09T09:21:45.999Z,99.99
2019-02-09T09:22:46.165Z,99.99
2019-02-09T09:23:46.281Z,99.99
2019-02-09T09:24:46.221Z,99.99
2019-02-09T09:25:43.840Z,99.99
2019-02-09T09:26:45.819Z,99.99
2019-02-09T09:27:45.791Z,99.99
2019-02-09T09:28:43.723Z,99.79
2019-02-09T09:29:43.709Z,98.74
2019-02-09T09:30:45.576Z,99.41
2019-02-09T11:45:32.913Z,88.55
2019-02-09T11:46:32.724Z,88.55
2019-02-09T11:48:29.564Z,87.31
2019-02-09T11:49:26.878Z,86.88
2019-02-09T11:50:26.889Z,86.03
2019-02-09T11:51:26.873Z,85.55
2019-02-09T11:52:27.121Z,85.78
2019-02-09T11:53:28.802Z,85.97
2019-02-09T11:54:28.866Z,86.41
2019-02-09T11:55:27.012Z,86.60
2019-02-09T11:56:26.965Z,86.65
2019-02-09T11:57:26.921Z,87.17
2019-02-09T11:58:26.844Z,86.88
2019-02-09T11:59:28.156Z,86.69
2019-02-09T12:00:26.854Z,86.60
2019-02-09T12:01:26.803Z,87.07
2019-02-09T12:02:26.822Z,86.98
2019-02-09T12:03:26.821Z,86.69
2019-02-09T12:04:26.881Z,86.88
2019-02-09T12:05:26.779Z,86.98
2019-02-09T12:06:26.791Z,86.69
2019-02-09T12:07:26.796Z,87.84
2019-02-09T12:08:29.530Z,87.65
2019-02-09T12:09:26.770Z,87.93
2019-02-09T12:10:26.841Z,88.31
2019-02-09T12:11:26.911Z,87.74
2019-02-09T12:12:29.291Z,88.03
2019-02-09T12:13:29.607Z,87.31
2019-02-09T12:14:26.873Z,85.68
2019-02-09T12:15:26.746Z,82.43
2019-02-09T12:16:29.246Z,83.64
2019-02-09T12:17:26.715Z,83.48
2019-02-09T12:18:26.731Z,81.43
2019-02-09T12:19:26.745Z,80.81
2019-02-09T12:20:26.708Z,81.92
2019-02-09T12:21:26.700Z,82.49
2019-02-09T12:22:28.103Z,82.40
2019-02-09T12:23:26.703Z,82.11
2019-02-09T12:24:27.993Z,82.20
2019-02-09T12:25:26.682Z,81.92
2019-02-09T12:26:28.197Z,81.73
2019-02-09T12:27:28.398Z,81.82
2019-02-09T12:28:26.722Z,81.92
2019-02-09T12:29:26.718Z,82.68
2019-02-09T12:30:26.671Z,81.44
2019-02-09T12:31:29.295Z,81.44
2019-02-09T12:32:29.541Z,82.59
2019-02-09T12:33:26.663Z,83.12
2019-02-09T12:34:28.445Z,83.21
2019-02-09T12:35:26.841Z,82.78
2019-02-09T12:36:26.739Z,82.49
2019-02-09T12:37:26.624Z,82.01
2019-02-09T12:38:26.673Z,82.30
2019-02-09T12:39:26.643Z,82.11
2019-02-09T12:40:26.614Z,82.30
2019-02-09T12:41:26.618Z,81.02
2019-02-09T12:42:26.619Z,80.83
2019-02-09T12:43:26.682Z,81.30
2019-02-09T12:44:26.585Z,81.30
2019-02-09T12:45:26.613Z,80.91
2019-02-09T12:46:26.666Z,80.11
2019-02-09T12:47:34.451Z,80.26
2019-02-09T12:48:26.582Z,81.15
2019-02-09T12:49:27.401Z,81.59
2019-02-09T12:50:26.615Z,81.59
2019-02-09T12:51:28.404Z,81.40
2019-02-09T12:52:26.612Z,82.45
2019-02-09T12:53:26.564Z,82.45
2019-02-09T12:54:26.629Z,83.40
2019-02-09T12:55:26.597Z,84.16
2019-02-09T12:56:26.536Z,84.16
2019-02-09T12:57:26.541Z,84.26
2019-02-09T12:58:26.534Z,84.74
2019-02-09T12:59:26.618Z,84.45
2019-02-09T13:00:26.574Z,84.36
2019-02-09T13:01:26.520Z,85.02
2019-02-09T13:02:28.543Z,84.55
2019-02-09T13:03:31.333Z,84.45
2019-02-09T13:04:26.521Z,84.74
2019-02-09T13:05:26.503Z,84.83
2019-02-09T13:06:26.535Z,84.20
2019-02-09T13:07:28.772Z,83.25
2019-02-09T13:08:26.507Z,83.44
2019-02-09T13:09:26.478Z,83.11
2019-02-09T13:10:26.536Z,82.49
2019-02-09T13:11:27.858Z,83.35
2019-02-09T13:12:26.477Z,83.73
2019-02-09T13:13:26.508Z,84.30
2019-02-09T13:14:28.060Z,84.64
2019-02-09T13:15:26.545Z,85.60
2019-02-09T13:16:27.674Z,86.26
2019-02-09T13:17:26.426Z,86.83
2019-02-09T13:18:26.421Z,88.45
2019-02-09T13:19:27.971Z,90.55
2019-02-09T13:20:26.406Z,90.93
2019-02-09T13:21:27.594Z,91.69
2019-02-09T13:22:28.024Z,91.17
2019-02-09T13:23:26.466Z,92.13
2019-02-09T13:24:26.453Z,91.84
2019-02-09T13:25:26.451Z,91.84
2019-02-09T13:26:27.668Z,92.60
2019-02-09T13:27:28.236Z,92.69
2019-02-09T13:28:27.829Z,93.74
2019-02-09T13:29:26.387Z,93.84
2019-02-09T13:30:26.570Z,94.98
2019-02-09T13:31:28.040Z,95.27
2019-02-09T13:32:27.912Z,96.32
2019-02-09T13:33:28.209Z,96.98
2019-02-09T13:34:28.504Z,97.84
2019-02-09T13:35:26.403Z,98.22
2019-02-09T13:36:27.675Z,97.75
2019-02-09T13:37:27.953Z,97.36
2019-02-09T13:38:28.107Z,97.36
2019-02-09T13:39:26.354Z,96.36
2019-02-09T13:40:26.409Z,94.70
2019-02-09T13:41:27.936Z,91.55
2019-02-09T13:42:27.606Z,91.64
2019-02-09T13:43:26.327Z,91.12
2019-02-09T13:44:26.359Z,89.21
2019-02-09T13:45:26.383Z,88.73
2019-02-09T13:46:27.543Z,87.21
2019-02-09T13:47:27.679Z,86.68
2019-02-09T13:48:29.886Z,86.92
2019-02-09T13:49:26.274Z,86.92
2019-02-09T13:50:26.288Z,88.02
2019-02-09T13:51:28.099Z,88.69
2019-02-09T13:52:28.080Z,88.31
